Pittsburg, Kentucky
Current Conditions -  °F | °C
As of 5:53 PM on Tuesday 21 Oct 2014 (Local Time) from KLOZ Reporting Station
Overcast Overcast  
Wind Chill: 56°   Ceiling: 6000
Heat Index: 56°   Visibility: 10mi
Dew Point: 39°   Wind: 9mph
Humidity: 53%   Direction: 340°NNW
Pressure: 30.08"   Gusts: NA
Location:  37.16°N, 84.1°W
Report Text: KLOZ 212153Z AUTO 34008KT 10SM OVC060 13/04 A3008 RMK AO2 SLP184 T01330039
Loading
Personal Weather Stations






























Interactive Weather Map
Tropical Storm Tracking
New forecast layout! Learn more

10-Day Weather Forecast

Advertisements
Track Severe Weather on mobile